Time;durP1;ratioP1;P1;durP2;ratioP2;P2;SDS_P1;SDS_P2;PMS_P1;PMS_P2;Temp;Humidity;BMP_temperature;BMP_pressure;BME280_temperature;BME280_humidity;BME280_pressure;Samples;Min_cycle;Max_cycle;Signal;HPM_P1;HPM_P2
2023/09/01 00:02:32;;;;;;;6.17;3.80;;;;;;;10.50;100.00;100631.00;5912619;29;20040;-67
2023/09/01 00:05:32;;;;;;;6.38;4.25;;;;;;;10.58;100.00;100648.81;5911552;29;20373;-66
2023/09/01 00:08:28;;;;;;;9.13;4.25;;;;;;;10.49;100.00;100642.59;5912302;29;20063;-66
2023/09/01 00:11:24;;;;;;;10.10;4.75;;;;;;;10.43;100.00;100643.19;5912499;29;20033;-66
2023/09/01 00:14:19;;;;;;;7.33;4.30;;;;;;;10.39;100.00;100635.66;5911321;29;20092;-66
2023/09/01 00:17:14;;;;;;;7.23;4.73;;;;;;;10.49;100.00;100647.88;5926635;29;20292;-66
2023/09/01 00:20:10;;;;;;;8.87;5.20;;;;;;;10.39;100.00;100633.84;5914523;29;20041;-66
2023/09/01 00:23:05;;;;;;;6.90;4.65;;;;;;;10.38;100.00;100621.56;5913845;29;20431;-66
2023/09/01 00:26:01;;;;;;;8.10;4.17;;;;;;;10.42;100.00;100628.25;5911606;29;20044;-65
2023/09/01 00:28:56;;;;;;;12.65;4.75;;;;;;;10.69;100.00;100645.97;5911764;29;20044;-66
2023/09/01 00:31:51;;;;;;;9.15;4.68;;;;;;;10.58;100.00;100624.97;5911758;29;20056;-66
2023/09/01 00:34:55;;;;;;;9.93;4.80;;;;;;;10.53;100.00;100635.19;5919433;29;20084;-65
2023/09/01 00:37:51;;;;;;;8.05;4.10;;;;;;;10.51;100.00;100639.81;5911646;29;20371;-65
2023/09/01 00:40:48;;;;;;;8.18;4.38;;;;;;;10.43;100.00;100635.25;5911617;29;20043;-65
2023/09/01 00:43:43;;;;;;;6.40;4.05;;;;;;;10.51;100.00;100645.94;5910115;29;20391;-65
2023/09/01 00:46:39;;;;;;;8.47;4.80;;;;;;;10.30;100.00;100621.47;5911791;29;20029;-66
2023/09/01 00:49:37;;;;;;;7.53;4.07;;;;;;;10.27;100.00;100632.38;5911494;29;20640;-66
2023/09/01 00:52:34;;;;;;;8.00;4.95;;;;;;;10.18;100.00;100621.81;5910476;29;20033;-67
2023/09/01 00:55:29;;;;;;;6.05;4.00;;;;;;;10.34;100.00;100637.91;5893477;29;20086;-66
2023/09/01 00:58:25;;;;;;;7.63;3.92;;;;;;;10.22;100.00;100631.97;5911102;29;20062;-67
2023/09/01 01:01:20;;;;;;;5.70;3.75;;;;;;;10.33;100.00;100642.38;5911496;29;20041;-65
2023/09/01 01:04:17;;;;;;;6.70;4.43;;;;;;;10.33;100.00;100629.13;5910176;29;20053;-66
2023/09/01 01:07:17;;;;;;;6.50;4.45;;;;;;;10.46;100.00;100626.97;5910596;29;20032;-66
2023/09/01 01:10:40;;;;;;;9.43;4.00;;;;;;;10.41;100.00;100634.53;5912084;29;20032;-65
2023/09/01 01:13:40;;;;;;;9.52;4.43;;;;;;;10.39;100.00;100620.59;5890383;29;20480;-66
2023/09/01 01:16:35;;;;;;;8.20;4.18;;;;;;;10.42;100.00;100630.91;5919192;29;20044;-66
2023/09/01 01:19:42;;;;;;;8.00;4.37;;;;;;;10.27;100.00;100616.50;5899067;29;20070;-65
2023/09/01 01:22:40;;;;;;;7.55;5.13;;;;;;;10.35;100.00;100616.59;5910728;29;20087;-66
2023/09/01 01:25:37;;;;;;;7.82;4.65;;;;;;;10.30;100.00;100610.88;5893492;29;20032;-66
2023/09/01 01:28:33;;;;;;;12.13;4.28;;;;;;;10.32;100.00;100629.28;5910993;29;20050;-66
2023/09/01 01:31:28;;;;;;;7.85;4.28;;;;;;;10.18;100.00;100609.41;5910150;29;20123;-66
2023/09/01 01:34:37;;;;;;;6.17;4.00;;;;;;;10.31;100.00;100625.81;5909847;29;20098;-65
2023/09/01 01:37:39;;;;;;;8.18;3.60;;;;;;;10.22;100.00;100634.63;5910270;29;20055;-65
2023/09/01 01:40:37;;;;;;;7.25;4.03;;;;;;;10.14;100.00;100637.16;5893754;29;20037;-67
2023/09/01 01:43:33;;;;;;;12.25;3.80;;;;;;;10.20;100.00;100641.88;5909731;29;20060;-65
2023/09/01 01:46:29;;;;;;;7.18;4.10;;;;;;;10.07;100.00;100622.81;5896923;29;20076;-66
2023/09/01 01:49:27;;;;;;;7.97;4.13;;;;;;;10.01;100.00;100626.03;5910548;29;20050;-66
2023/09/01 01:52:22;;;;;;;6.28;4.10;;;;;;;10.07;100.00;100630.75;5910433;29;20047;-67
2023/09/01 01:55:18;;;;;;;7.03;4.03;;;;;;;9.93;100.00;100628.56;5909644;29;20465;-66
2023/09/01 01:58:13;;;;;;;6.65;3.78;;;;;;;10.03;100.00;100639.94;5910403;29;20490;-65
2023/09/01 02:01:08;;;;;;;7.00;4.30;;;;;;;10.11;100.00;100653.31;5910367;29;20040;-66
2023/09/01 02:04:05;;;;;;;6.90;4.15;;;;;;;10.10;100.00;100649.84;5909866;29;20111;-65
2023/09/01 02:07:00;;;;;;;8.20;4.57;;;;;;;10.03;100.00;100646.09;5909943;29;20040;-67
2023/09/01 02:09:55;;;;;;;8.05;4.38;;;;;;;10.08;100.00;100646.47;5923131;29;20044;-65
2023/09/01 02:12:51;;;;;;;9.43;4.40;;;;;;;10.03;100.00;100645.25;5910079;29;20071;-67
2023/09/01 02:15:53;;;;;;;9.30;4.90;;;;;;;10.14;100.00;100658.34;5909505;29;20480;-66
2023/09/01 02:18:48;;;;;;;7.70;4.22;;;;;;;10.14;100.00;100653.06;5913238;29;20634;-66
2023/09/01 02:21:45;;;;;;;8.03;4.37;;;;;;;10.12;100.00;100641.75;5914958;29;20236;-67
2023/09/01 02:24:40;;;;;;;5.88;3.63;;;;;;;10.12;100.00;100642.63;5914159;29;20045;-66
2023/09/01 02:27:39;;;;;;;7.63;4.80;;;;;;;10.07;100.00;100631.59;5914453;29;20429;-67
2023/09/01 02:30:34;;;;;;;9.25;5.32;;;;;;;10.22;100.00;100641.75;5914759;29;20096;-66
2023/09/01 02:33:29;;;;;;;8.43;4.67;;;;;;;10.12;100.00;100633.78;5913527;29;20032;-66
2023/09/01 02:36:29;;;;;;;7.47;4.57;;;;;;;10.26;100.00;100653.72;5914135;29;20036;-65
2023/09/01 02:39:24;;;;;;;5.75;3.88;;;;;;;10.10;100.00;100641.06;5916681;29;20131;-65
2023/09/01 02:42:20;;;;;;;8.43;4.53;;;;;;;10.11;100.00;100643.56;5924911;29;20042;-67
2023/09/01 02:45:15;;;;;;;10.63;4.53;;;;;;;10.12;100.00;100645.25;5913461;29;20055;-65
2023/09/01 02:48:11;;;;;;;11.63;4.23;;;;;;;9.94;100.00;100640.84;5914366;29;20632;-67
2023/09/01 02:51:06;;;;;;;9.20;4.50;;;;;;;9.94;100.00;100630.25;5913583;29;20324;-65
2023/09/01 02:54:04;;;;;;;7.60;4.30;;;;;;;9.96;100.00;100633.56;5913233;29;20119;-64
2023/09/01 02:56:59;;;;;;;8.40;4.68;;;;;;;9.93;100.00;100633.84;5913861;29;20135;-66
2023/09/01 02:59:55;;;;;;;6.53;4.20;;;;;;;9.93;100.00;100644.44;5914105;29;20067;-65
2023/09/01 03:02:50;;;;;;;7.43;4.37;;;;;;;9.97;100.00;100662.56;5913981;29;20036;-66
2023/09/01 03:05:48;;;;;;;9.60;4.30;;;;;;;9.90;100.00;100636.78;5912716;29;20088;-67
2023/09/01 03:08:43;;;;;;;8.25;4.05;;;;;;;9.96;100.00;100660.06;5912293;29;20033;-65
2023/09/01 03:11:38;;;;;;;7.20;4.20;;;;;;;9.86;100.00;100659.25;5913497;29;20062;-66
2023/09/01 03:14:34;;;;;;;6.73;4.40;;;;;;;9.90;100.00;100663.28;5912971;29;20044;-66
2023/09/01 03:17:29;;;;;;;8.10;3.77;;;;;;;9.78;100.00;100649.38;5913353;29;20487;-67
2023/09/01 03:20:24;;;;;;;8.53;4.07;;;;;;;9.70;100.00;100638.66;5908354;29;20293;-65
2023/09/01 03:23:21;;;;;;;8.82;4.93;;;;;;;9.86;100.00;100659.25;5909886;29;20048;-66
2023/09/01 03:26:16;;;;;;;8.00;4.45;;;;;;;9.84;100.00;100667.31;5912711;29;20037;-65
2023/09/01 03:29:12;;;;;;;9.88;4.53;;;;;;;9.74;100.00;100663.88;5912439;29;20056;-66
2023/09/01 03:32:10;;;;;;;7.33;4.13;;;;;;;9.65;100.00;100648.00;5912767;29;20032;-67
2023/09/01 03:35:05;;;;;;;7.72;4.18;;;;;;;9.63;100.00;100668.47;5902797;29;20049;-65
2023/09/01 03:38:01;;;;;;;8.52;3.72;;;;;;;9.41;100.00;100662.50;5911229;29;20060;-67
2023/09/01 03:40:58;;;;;;;6.45;3.78;;;;;;;9.41;100.00;100654.56;5912919;29;20647;-67
2023/09/01 03:43:53;;;;;;;9.27;4.15;;;;;;;9.90;100.00;100679.16;5911916;29;20056;-66
2023/09/01 03:46:49;;;;;;;9.38;3.88;;;;;;;9.75;100.00;100664.72;5916206;29;20062;-67
2023/09/01 03:49:44;;;;;;;6.80;4.30;;;;;;;9.47;100.00;100677.00;5911630;29;20475;-66
2023/09/01 03:52:39;;;;;;;8.75;4.57;;;;;;;9.25;100.00;100675.47;5923985;29;20043;-65
2023/09/01 03:55:35;;;;;;;7.93;3.33;;;;;;;9.44;100.00;100687.84;5913060;29;20036;-65
2023/09/01 03:58:30;;;;;;;8.13;3.87;;;;;;;9.33;100.00;100672.94;5904181;29;20064;-65
2023/09/01 04:01:25;;;;;;;7.30;3.70;;;;;;;9.11;100.00;100659.97;5912282;29;20472;-67
2023/09/01 04:04:21;;;;;;;7.87;3.70;;;;;;;9.17;100.00;100667.38;5911580;29;20044;-66
2023/09/01 04:07:16;;;;;;;8.47;4.37;;;;;;;9.22;100.00;100664.31;5912229;29;20041;-65
2023/09/01 04:10:11;;;;;;;7.47;3.90;;;;;;;9.36;100.00;100667.38;5912233;29;20044;-65
2023/09/01 04:13:06;;;;;;;7.10;3.93;;;;;;;9.55;100.00;100655.94;5912029;29;20496;-65
2023/09/01 04:16:02;;;;;;;10.13;4.80;;;;;;;9.22;100.00;100670.44;5913217;29;20464;-66
2023/09/01 04:18:57;;;;;;;8.35;4.13;;;;;;;9.14;100.00;100667.66;5913788;29;20035;-66
2023/09/01 04:21:53;;;;;;;9.63;4.33;;;;;;;9.29;100.00;100679.50;5912334;29;20472;-65
2023/09/01 04:24:49;;;;;;;9.43;4.60;;;;;;;9.36;100.00;100685.06;5910534;29;20084;-64
2023/09/01 04:27:44;;;;;;;11.52;5.28;;;;;;;9.45;100.00;100673.66;5911675;29;20040;-66
2023/09/01 04:30:40;;;;;;;11.23;5.67;;;;;;;9.58;100.00;100698.88;5910704;29;20028;-65
2023/09/01 04:33:35;;;;;;;11.90;5.05;;;;;;;9.59;100.00;100689.13;5907122;29;20044;-66
2023/09/01 04:36:31;;;;;;;12.70;5.30;;;;;;;9.76;100.00;100698.13;5911835;29;20062;-65
2023/09/01 04:39:26;;;;;;;11.82;5.78;;;;;;;9.75;100.00;100672.66;5911485;29;20037;-66
2023/09/01 04:42:21;;;;;;;11.13;5.53;;;;;;;9.83;100.00;100691.31;5911714;29;20134;-66
2023/09/01 04:45:17;;;;;;;10.07;5.23;;;;;;;9.82;100.00;100679.03;5910750;29;20049;-66
2023/09/01 04:48:13;;;;;;;9.30;5.35;;;;;;;9.97;100.00;100693.53;5911782;29;20503;-65
2023/09/01 04:51:08;;;;;;;8.40;4.97;;;;;;;10.04;100.00;100700.75;5911705;29;20483;-65
2023/09/01 04:54:03;;;;;;;9.53;5.90;;;;;;;10.23;100.00;100678.69;5910700;29;20044;-65
2023/09/01 04:57:01;;;;;;;14.73;5.70;;;;;;;10.45;100.00;100696.06;5912061;29;20024;-65
2023/09/01 04:59:57;;;;;;;8.88;5.18;;;;;;;10.28;100.00;100681.75;5904745;29;20652;-66
2023/09/01 05:02:52;;;;;;;9.77;5.43;;;;;;;10.43;100.00;100675.00;5911508;29;20036;-66
2023/09/01 05:05:49;;;;;;;9.57;6.00;;;;;;;10.42;100.00;100683.94;5910519;29;20040;-66
2023/09/01 05:08:44;;;;;;;10.85;5.95;;;;;;;10.48;100.00;100693.13;5911330;29;20054;-66
2023/09/01 05:11:39;;;;;;;9.00;5.13;;;;;;;10.36;100.00;100691.63;5911246;29;20033;-65
2023/09/01 05:14:35;;;;;;;8.43;4.83;;;;;;;10.58;100.00;100710.66;5909920;29;20039;-64
2023/09/01 05:17:30;;;;;;;9.70;4.50;;;;;;;10.72;100.00;100707.53;5903626;29;20125;-65
2023/09/01 05:20:26;;;;;;;12.43;5.70;;;;;;;10.77;100.00;100694.66;5910982;29;20284;-66
2023/09/01 05:23:21;;;;;;;9.47;4.50;;;;;;;10.75;100.00;100712.53;5910386;29;20040;-64
2023/09/01 05:26:16;;;;;;;7.53;4.43;;;;;;;10.81;100.00;100710.28;5910750;29;20048;-65
2023/09/01 05:29:11;;;;;;;9.80;4.80;;;;;;;10.83;100.00;100698.53;5910513;29;20429;-65
2023/09/01 05:32:07;;;;;;;6.63;4.13;;;;;;;11.02;100.00;100716.16;5908451;29;20040;-64
2023/09/01 05:35:03;;;;;;;7.10;4.13;;;;;;;10.79;100.00;100706.94;5910072;29;20055;-65
2023/09/01 05:37:58;;;;;;;7.85;4.20;;;;;;;10.84;100.00;100705.53;5910887;29;20028;-66
2023/09/01 05:41:02;;;;;;;7.47;4.20;;;;;;;10.93;100.00;100701.13;5920933;29;20384;-66
2023/09/01 05:43:57;;;;;;;8.93;4.10;;;;;;;11.10;100.00;100716.25;5904154;29;20563;-65
2023/09/01 05:46:53;;;;;;;10.40;4.40;;;;;;;11.17;100.00;100696.09;5910737;29;20039;-65
2023/09/01 05:49:48;;;;;;;21.23;6.38;;;;;;;11.84;100.00;100696.41;5910291;29;20036;-66
2023/09/01 05:52:43;;;;;;;11.67;4.20;;;;;;;11.87;100.00;100690.78;5909945;29;20040;-66
2023/09/01 05:55:39;;;;;;;7.73;3.77;;;;;;;12.36;100.00;100717.69;5909013;29;20036;-66
2023/09/01 05:58:35;;;;;;;5.83;3.67;;;;;;;12.30;100.00;100708.50;5909133;29;20395;-65
2023/09/01 06:01:35;;;;;;;7.10;3.50;;;;;;;12.92;100.00;100709.97;5910388;29;20035;-66
2023/09/01 06:04:30;;;;;;;5.85;3.45;;;;;;;13.11;100.00;100706.22;5909704;29;20128;-66
2023/09/01 06:07:25;;;;;;;4.97;3.00;;;;;;;13.92;100.00;100716.97;5909899;29;20484;-65
2023/09/01 06:10:21;;;;;;;6.07;2.70;;;;;;;13.40;100.00;100705.81;5909798;29;20040;-66
2023/09/01 06:13:16;;;;;;;5.90;2.87;;;;;;;14.55;100.00;100719.72;5909870;29;20088;-65
2023/09/01 06:16:11;;;;;;;6.17;2.77;;;;;;;14.70;100.00;100715.34;5908847;29;20087;-65
2023/09/01 06:19:07;;;;;;;9.40;3.23;;;;;;;14.82;100.00;100724.63;5910036;29;20113;-66
2023/09/01 06:22:02;;;;;;;7.00;2.60;;;;;;;15.17;100.00;100734.81;5910317;29;20408;-66
2023/09/01 06:24:57;;;;;;;6.30;2.47;;;;;;;15.31;100.00;100718.03;5909596;29;20029;-66
2023/09/01 06:27:53;;;;;;;5.43;2.37;;;;;;;15.40;100.00;100708.97;5910085;29;20433;-66
2023/09/01 06:30:49;;;;;;;6.73;2.50;;;;;;;15.53;100.00;100712.91;5910067;29;20154;-65
2023/09/01 06:33:46;;;;;;;7.57;2.70;;;;;;;15.46;100.00;100724.31;5907749;29;20041;-66
2023/09/01 06:36:42;;;;;;;4.68;2.70;;;;;;;15.24;100.00;100719.78;5910212;29;20092;-66
2023/09/01 06:39:37;;;;;;;8.20;3.07;;;;;;;15.43;100.00;100729.16;5909902;29;20579;-65
2023/09/01 06:42:32;;;;;;;8.60;3.10;;;;;;;15.63;100.00;100724.19;5910256;29;20048;-65
2023/09/01 06:45:28;;;;;;;4.93;2.80;;;;;;;15.40;100.00;100730.34;5909466;29;20081;-66
2023/09/01 06:48:23;;;;;;;4.97;2.70;;;;;;;15.15;100.00;100711.97;5908373;29;20059;-66
2023/09/01 06:51:18;;;;;;;5.88;2.60;;;;;;;15.41;100.00;100723.97;5910118;29;20044;-66
2023/09/01 06:54:14;;;;;;;4.93;2.20;;;;;;;15.40;100.00;100725.00;5909133;29;20032;-66
2023/09/01 06:57:09;;;;;;;5.93;2.78;;;;;;;15.61;100.00;100723.56;5909989;29;20040;-66
2023/09/01 07:00:06;;;;;;;6.73;2.30;;;;;;;15.52;100.00;100714.75;5909956;29;20045;-65
2023/09/01 07:03:02;;;;;;;4.22;2.20;;;;;;;15.79;100.00;100726.78;5909695;29;20036;-66
2023/09/01 07:05:57;;;;;;;6.95;2.70;;;;;;;15.69;100.00;100731.50;5902199;29;20077;-66
2023/09/01 07:08:53;;;;;;;5.72;2.33;;;;;;;15.70;100.00;100719.81;5912747;29;20033;-65
2023/09/01 07:11:48;;;;;;;6.37;2.70;;;;;;;15.93;100.00;100739.34;5913950;29;20058;-66
2023/09/01 07:14:43;;;;;;;5.17;2.27;;;;;;;15.95;100.00;100730.13;5916964;29;20119;-65
2023/09/01 07:17:39;;;;;;;7.20;2.20;;;;;;;16.36;100.00;100735.94;5929608;29;20039;-66
2023/09/01 07:20:34;;;;;;;5.43;2.80;;;;;;;16.76;97.75;100742.75;5913889;29;20060;-66
2023/09/01 07:23:29;;;;;;;5.70;2.57;;;;;;;16.64;95.06;100725.47;5911195;29;20047;-66
2023/09/01 07:26:25;;;;;;;6.97;2.70;;;;;;;16.46;95.65;100733.84;5913579;29;20408;-66
2023/09/01 07:29:20;;;;;;;8.17;2.80;;;;;;;16.50;97.44;100734.28;5913751;29;20035;-65
2023/09/01 07:32:16;;;;;;;6.60;2.70;;;;;;;16.65;97.03;100741.34;5913343;29;20037;-66
2023/09/01 07:35:12;;;;;;;5.15;2.35;;;;;;;16.84;96.52;100739.13;5912977;29;20033;-67
2023/09/01 07:38:07;;;;;;;5.00;2.40;;;;;;;16.67;95.57;100725.94;5913047;29;20115;-66
2023/09/01 07:41:03;;;;;;;7.33;2.37;;;;;;;17.13;96.03;100742.59;5912428;29;20280;-66
2023/09/01 07:43:58;;;;;;;5.35;2.50;;;;;;;17.70;90.56;100745.31;5912600;29;20041;-66
2023/09/01 07:46:53;;;;;;;4.90;1.90;;;;;;;17.99;89.66;100732.81;5912870;29;20088;-66
2023/09/01 07:49:49;;;;;;;7.03;3.20;;;;;;;18.17;86.87;100746.56;5913231;29;20025;-66
2023/09/01 07:52:44;;;;;;;4.63;2.33;;;;;;;17.89;88.82;100738.47;5912830;29;20055;-66
2023/09/01 07:55:40;;;;;;;5.90;2.60;;;;;;;18.29;87.03;100756.56;5910825;29;20033;-65
2023/09/01 07:58:35;;;;;;;8.03;2.80;;;;;;;18.42;86.06;100755.84;5912632;29;20036;-66
2023/09/01 08:01:30;;;;;;;6.47;2.53;;;;;;;18.46;86.69;100743.69;5912515;29;20269;-67
2023/09/01 08:04:25;;;;;;;5.67;3.00;;;;;;;18.52;82.51;100756.38;5912248;29;20096;-67
2023/09/01 08:07:21;;;;;;;6.27;2.67;;;;;;;18.21;83.42;100763.94;5912454;29;20052;-66
2023/09/01 08:10:16;;;;;;;8.43;2.60;;;;;;;18.27;85.57;100763.16;5912705;29;20047;-67
2023/09/01 08:13:11;;;;;;;6.83;2.37;;;;;;;18.48;85.07;100744.34;5905660;29;20036;-67
2023/09/01 08:16:07;;;;;;;3.83;2.00;;;;;;;18.93;84.99;100759.09;5911203;29;20480;-66
2023/09/01 08:19:03;;;;;;;6.38;2.50;;;;;;;18.52;84.87;100745.63;5912495;29;20308;-65
2023/09/01 08:21:58;;;;;;;8.40;3.63;;;;;;;18.47;82.89;100753.41;5912195;29;20037;-66
2023/09/01 08:24:53;;;;;;;5.70;3.20;;;;;;;18.42;84.59;100750.50;5911732;29;20064;-67
2023/09/01 08:27:49;;;;;;;6.10;3.07;;;;;;;18.70;83.78;100731.66;5912106;29;20044;-65
2023/09/01 08:30:45;;;;;;;6.87;2.27;;;;;;;18.86;82.54;100742.13;5911753;29;20037;-66
2023/09/01 08:33:42;;;;;;;8.38;2.55;;;;;;;19.13;81.58;100743.91;5911432;29;20280;-66
2023/09/01 08:36:37;;;;;;;9.02;3.35;;;;;;;19.30;81.34;100747.03;5911698;29;20056;-65
2023/09/01 08:39:33;;;;;;;7.85;3.53;;;;;;;19.41;76.97;100757.25;5918940;29;20480;-66
2023/09/01 08:42:28;;;;;;;6.20;2.97;;;;;;;19.43;77.08;100745.25;5917874;29;20037;-65
2023/09/01 08:45:24;;;;;;;8.88;3.22;;;;;;;19.54;77.05;100746.53;5911049;29;20075;-66
2023/09/01 08:48:20;;;;;;;8.82;3.08;;;;;;;19.42;78.66;100745.47;5894972;29;20476;-66
2023/09/01 08:51:15;;;;;;;7.27;3.30;;;;;;;19.37;78.06;100737.97;5910326;29;20048;-66
2023/09/01 08:54:10;;;;;;;6.87;3.20;;;;;;;19.45;76.55;100729.75;5910267;29;20040;-66
2023/09/01 08:57:06;;;;;;;7.73;3.63;;;;;;;19.39;75.55;100748.56;5902837;29;20132;-66
2023/09/01 09:00:01;;;;;;;11.33;3.50;;;;;;;19.52;76.52;100732.44;5911266;29;20276;-65
2023/09/01 09:02:56;;;;;;;9.13;3.53;;;;;;;19.57;73.56;100746.09;5911291;29;20037;-65
2023/09/01 09:05:52;;;;;;;6.97;3.27;;;;;;;19.59;75.35;100723.34;5910564;29;20036;-66
2023/09/01 09:09:03;;;;;;;7.57;3.20;;;;;;;19.70;74.04;100739.94;5894990;29;20337;-65
2023/09/01 09:11:59;;;;;;;9.00;3.60;;;;;;;19.67;75.67;100727.72;5910857;29;20507;-66
2023/09/01 09:14:55;;;;;;;11.30;3.00;;;;;;;19.97;75.36;100742.47;5910476;29;20427;-66
2023/09/01 09:17:50;;;;;;;8.40;3.30;;;;;;;20.05;74.70;100736.88;5911090;29;20037;-66
2023/09/01 09:20:47;;;;;;;10.30;3.33;;;;;;;19.62;71.67;100722.13;5910982;29;20036;-66
2023/09/01 09:23:43;;;;;;;6.90;2.80;;;;;;;19.88;74.27;100737.47;5910444;29;20036;-66
2023/09/01 09:26:39;;;;;;;7.88;2.95;;;;;;;19.95;71.30;100738.28;5910425;29;20057;-65
2023/09/01 09:29:40;;;;;;;7.10;3.10;;;;;;;19.80;70.89;100730.44;5909160;29;20049;-66
2023/09/01 09:32:35;;;;;;;8.02;3.20;;;;;;;19.84;72.00;100731.66;5910699;29;20391;-65
2023/09/01 09:35:32;;;;;;;6.13;2.60;;;;;;;20.25;69.71;100736.88;5893455;29;20039;-66
2023/09/01 09:38:57;;;;;;;7.03;2.72;;;;;;;20.57;70.34;100737.91;5910747;29;20439;-66
2023/09/01 09:41:56;;;;;;;3.70;2.15;;;;;;;20.58;69.60;100707.19;5906198;29;20441;-66
2023/09/01 09:44:55;;;;;;;10.38;2.80;;;;;;;20.80;67.96;100724.75;5909044;29;20037;-66
2023/09/01 09:47:50;;;;;;;7.45;3.05;;;;;;;21.16;65.26;100716.16;5910497;29;20062;-67
2023/09/01 09:50:51;;;;;;;6.15;2.88;;;;;;;21.22;64.99;100720.69;5910741;29;20116;-65
2023/09/01 09:53:47;;;;;;;7.18;2.83;;;;;;;21.09;63.54;100726.16;5909772;29;20037;-66
2023/09/01 09:56:42;;;;;;;6.93;2.88;;;;;;;21.62;62.59;100742.88;5909455;29;20396;-66
2023/09/01 10:00:10;;;;;;;9.95;3.50;;;;;;;21.95;59.60;100730.00;5893725;29;20049;-66
2023/09/01 10:03:07;;;;;;;9.18;2.90;;;;;;;21.72;61.03;100738.66;5901802;29;20056;-66
2023/09/01 10:06:05;;;;;;;7.05;2.67;;;;;;;21.88;60.18;100737.31;5909782;29;20436;-65
2023/09/01 10:09:04;;;;;;;7.80;2.65;;;;;;;22.01;61.30;100741.81;5909034;29;20040;-67
2023/09/01 10:11:59;;;;;;;9.18;3.67;;;;;;;21.68;62.62;100752.81;5910400;29;20115;-66
2023/09/01 10:14:56;;;;;;;7.07;3.20;;;;;;;21.68;59.65;100742.00;5914337;29;20036;-66
2023/09/01 10:17:51;;;;;;;10.65;3.38;;;;;;;20.74;62.26;100745.31;5922382;29;20116;-65
2023/09/01 10:20:47;;;;;;;6.72;2.92;;;;;;;21.36;60.11;100733.88;5893445;29;20032;-67
2023/09/01 10:23:46;;;;;;;8.88;3.38;;;;;;;21.59;62.00;100754.09;5909761;29;20033;-66
2023/09/01 10:26:41;;;;;;;9.13;3.13;;;;;;;21.26;59.85;100743.47;5893355;29;20032;-67
2023/09/01 10:29:37;;;;;;;6.20;2.53;;;;;;;21.34;59.17;100749.47;5910325;29;20495;-65
2023/09/01 10:32:33;;;;;;;8.10;3.20;;;;;;;21.49;61.82;100742.97;5893656;29;20032;-67
2023/09/01 10:35:36;;;;;;;7.63;2.67;;;;;;;21.80;58.62;100735.69;5886007;29;20040;-66
2023/09/01 10:38:34;;;;;;;8.38;3.00;;;;;;;22.20;57.74;100749.75;5910974;29;20795;-67
2023/09/01 10:41:51;;;;;;;6.50;2.92;;;;;;;22.21;55.83;100754.09;5914354;29;20067;-67
2023/09/01 10:44:46;;;;;;;8.57;2.67;;;;;;;21.74;57.90;100758.16;5914000;29;20037;-65
2023/09/01 10:47:42;;;;;;;6.80;2.97;;;;;;;21.95;57.22;100748.91;5914157;29;20043;-67
2023/09/01 10:50:40;;;;;;;6.53;2.50;;;;;;;21.57;58.30;100750.81;5912454;29;20033;-68
2023/09/01 10:53:36;;;;;;;8.68;3.00;;;;;;;21.34;57.97;100749.47;5913498;29;20037;-66
2023/09/01 10:56:31;;;;;;;9.57;3.20;;;;;;;21.33;59.61;100752.41;5913280;29;20052;-66
2023/09/01 10:59:35;;;;;;;5.27;2.37;;;;;;;20.88;61.85;100754.19;5914572;29;20064;-66
2023/09/01 11:02:31;;;;;;;9.88;2.90;;;;;;;20.56;61.53;100755.94;5912723;29;20367;-67
2023/09/01 11:05:37;;;;;;;7.40;2.50;;;;;;;21.13;60.76;100755.16;5912809;29;20092;-66
2023/09/01 11:08:32;;;;;;;4.70;1.95;;;;;;;21.39;57.11;100745.31;5904400;29;20036;-66
2023/09/01 11:11:28;;;;;;;6.90;1.75;;;;;;;21.50;54.63;100740.03;5905637;29;20096;-67
2023/09/01 11:14:23;;;;;;;6.30;1.77;;;;;;;21.62;55.19;100768.00;5913104;29;20063;-67
2023/09/01 11:17:38;;;;;;;4.80;1.80;;;;;;;21.77;53.90;100773.09;5913384;29;20056;-66
2023/09/01 11:20:33;;;;;;;5.63;1.70;;;;;;;21.67;54.29;100751.16;5913858;29;20036;-66
2023/09/01 11:23:29;;;;;;;4.00;1.80;;;;;;;20.99;56.33;100748.13;5911369;29;20044;-67
2023/09/01 11:26:24;;;;;;;4.60;1.93;;;;;;;21.11;57.52;100759.97;5913636;29;20268;-66
2023/09/01 11:29:19;;;;;;;5.43;1.80;;;;;;;21.59;57.09;100765.72;5913423;29;20476;-66
2023/09/01 11:32:27;;;;;;;4.63;1.63;;;;;;;20.91;54.38;100742.97;5913152;29;20610;-66
2023/09/01 11:35:27;;;;;;;4.68;1.50;;;;;;;20.96;55.96;100736.94;5912664;29;20273;-67
2023/09/01 11:38:23;;;;;;;4.20;1.40;;;;;;;21.19;56.21;100757.03;5914300;29;20032;-67
2023/09/01 11:41:20;;;;;;;5.23;1.60;;;;;;;20.94;57.59;100750.66;5923659;29;20051;-67
2023/09/01 11:44:15;;;;;;;3.85;1.73;;;;;;;21.04;58.18;100751.00;5898202;29;20492;-66
2023/09/01 11:47:11;;;;;;;3.87;1.50;;;;;;;20.99;57.59;100763.47;5913219;29;20043;-67
2023/09/01 11:50:11;;;;;;;8.40;2.10;;;;;;;21.02;57.77;100752.28;5912067;29;20032;-67
2023/09/01 11:53:07;;;;;;;3.72;1.75;;;;;;;20.39;58.07;100753.84;5913186;29;20060;-66
2023/09/01 11:56:25;;;;;;;4.40;1.40;;;;;;;20.39;58.43;100752.00;5912470;29;20392;-66
2023/09/01 11:59:20;;;;;;;3.78;1.70;;;;;;;20.55;58.31;100756.94;5912630;29;20339;-67
2023/09/01 12:02:19;;;;;;;5.20;1.50;;;;;;;20.31;60.66;100767.53;5912824;29;20040;-67
2023/09/01 12:05:15;;;;;;;6.50;1.98;;;;;;;20.22;62.95;100755.31;5911878;29;20060;-67
2023/09/01 12:08:10;;;;;;;3.70;1.27;;;;;;;19.97;63.62;100757.78;5912727;29;20035;-66
2023/09/01 12:11:05;;;;;;;8.87;1.80;;;;;;;20.06;63.72;100746.59;5912554;29;20344;-66
2023/09/01 12:14:21;;;;;;;4.60;1.70;;;;;;;20.08;64.42;100759.88;5910711;29;20636;-67
2023/09/01 12:17:17;;;;;;;4.18;1.88;;;;;;;19.85;66.09;100752.16;5912288;29;20124;-66
2023/09/01 12:20:14;;;;;;;6.72;1.70;;;;;;;19.80;67.12;100738.50;5912568;29;20036;-66
2023/09/01 12:23:09;;;;;;;6.57;1.63;;;;;;;19.62;66.35;100742.81;5912317;29;20036;-67
2023/09/01 12:26:05;;;;;;;5.90;1.73;;;;;;;19.72;68.15;100744.09;5911377;29;20044;-67
2023/09/01 12:29:00;;;;;;;5.82;1.70;;;;;;;19.81;68.72;100742.03;5912116;29;20399;-66
2023/09/01 12:31:55;;;;;;;5.73;1.63;;;;;;;19.56;67.19;100736.41;5910344;29;20123;-66
2023/09/01 12:34:51;;;;;;;6.27;1.90;;;;;;;19.68;68.69;100753.59;5912225;29;20481;-66
2023/09/01 12:37:46;;;;;;;3.73;1.60;;;;;;;19.78;69.07;100758.59;5912015;29;20037;-66
2023/09/01 12:40:41;;;;;;;4.47;1.90;;;;;;;19.67;69.97;100756.50;5911622;29;20087;-66
2023/09/01 12:43:36;;;;;;;5.00;1.73;;;;;;;19.38;70.63;100746.88;5911271;29;20377;-66
2023/09/01 12:46:32;;;;;;;4.97;1.70;;;;;;;19.47;71.61;100732.22;5911696;29;20040;-66
2023/09/01 12:49:28;;;;;;;5.67;1.50;;;;;;;19.64;71.77;100749.66;5911433;29;20036;-67
2023/09/01 12:52:23;;;;;;;3.53;1.40;;;;;;;19.65;72.46;100753.19;5911717;29;20552;-67
2023/09/01 12:55:18;;;;;;;4.27;1.30;;;;;;;19.49;72.06;100752.50;5910783;29;20048;-66
2023/09/01 12:58:14;;;;;;;2.23;1.03;;;;;;;19.49;73.09;100751.69;5911569;29;20039;-67
2023/09/01 13:01:10;;;;;;;2.28;1.08;;;;;;;19.59;72.38;100760.22;5911031;29;20374;-67
2023/09/01 13:04:05;;;;;;;4.27;1.30;;;;;;;19.44;73.98;100751.47;5909296;29;20047;-67
2023/09/01 13:07:01;;;;;;;3.05;1.00;;;;;;;19.51;74.43;100741.56;5911258;29;20308;-66
2023/09/01 13:09:56;;;;;;;2.28;1.10;;;;;;;19.37;73.55;100729.91;5911149;29;20472;-67
2023/09/01 13:12:51;;;;;;;4.30;1.00;;;;;;;19.35;74.53;100737.31;5911376;29;20041;-66
2023/09/01 13:15:47;;;;;;;2.23;1.00;;;;;;;19.61;73.94;100752.75;5922189;29;20047;-66
2023/09/01 13:18:43;;;;;;;3.53;1.40;;;;;;;19.45;74.55;100737.00;5911017;29;20064;-67
2023/09/01 13:21:38;;;;;;;2.80;1.10;;;;;;;19.63;74.54;100737.22;5907922;29;20506;-67
2023/09/01 13:24:33;;;;;;;1.93;1.00;;;;;;;19.63;75.07;100739.91;5909980;29;20055;-66
2023/09/01 13:27:29;;;;;;;3.97;1.20;;;;;;;19.59;73.83;100727.91;5910946;29;20115;-67
2023/09/01 13:30:24;;;;;;;2.73;1.20;;;;;;;19.65;73.30;100719.00;5910995;29;20311;-67
2023/09/01 13:33:19;;;;;;;3.17;1.20;;;;;;;19.61;72.36;100736.59;5910364;29;20129;-67
2023/09/01 13:36:14;;;;;;;2.47;1.10;;;;;;;19.53;74.58;100717.97;5909188;29;20033;-67
2023/09/01 13:39:10;;;;;;;4.20;1.20;;;;;;;19.76;73.82;100717.59;5910315;29;20312;-66